Murrell, Pennsylvania
Current Conditions -  °F | °C
As of 7:53 PM on Friday 24 Oct 2014 (Local Time) from KLNS Reporting Station
Clear Clear  
Wind Chill: 56°   Ceiling: Unl
Heat Index: 56°   Visibility: 10mi
Dew Point: 38°   Wind: 10mph
Humidity: 51%   Direction: 280°W
Pressure: 29.89"   Gusts: NA
Location:  40.1811°N, 76.176°W
Report Text: KLNS 242353Z 28009KT 10SM CLR 13/03 A2989 RMK AO2 SLP120 T01330033 10189 20128 53013
Loading
Personal Weather Stations






























Interactive Weather Map
Tropical Storm Tracking
New forecast layout! Learn more

10-Day Weather Forecast

Advertisements
Track Severe Weather on mobile